sensor_id;sensor_type;location;lat;lon;timestamp;pressure;altitude;pressure_sealevel;temperature;humidity
26719;BME280;14326;50.794;6.060;2023-05-03T00:02:19;100772.84;;;5.99;95.48
26719;BME280;14326;50.794;6.060;2023-05-03T00:04:46;100779.59;;;5.93;95.73
26719;BME280;14326;50.794;6.060;2023-05-03T00:07:13;100766.88;;;5.86;96.38
26719;BME280;14326;50.794;6.060;2023-05-03T00:09:41;100772.94;;;5.83;96.11
26719;BME280;14326;50.794;6.060;2023-05-03T00:12:08;100774.59;;;5.81;96.67
26719;BME280;14326;50.794;6.060;2023-05-03T00:14:34;100771.88;;;5.80;96.48
26719;BME280;14326;50.794;6.060;2023-05-03T00:17:01;100776.06;;;5.74;96.77
26719;BME280;14326;50.794;6.060;2023-05-03T00:19:48;100780.50;;;5.75;96.63
26719;BME280;14326;50.794;6.060;2023-05-03T00:22:29;100779.44;;;5.72;97.17
26719;BME280;14326;50.794;6.060;2023-05-03T00:25:01;100780.97;;;5.67;97.21
26719;BME280;14326;50.794;6.060;2023-05-03T00:27:28;100778.09;;;5.62;96.52
26719;BME280;14326;50.794;6.060;2023-05-03T00:29:55;100772.69;;;5.59;96.37
26719;BME280;14326;50.794;6.060;2023-05-03T00:32:22;100771.56;;;5.54;96.65
26719;BME280;14326;50.794;6.060;2023-05-03T00:34:51;100776.94;;;5.38;97.35
26719;BME280;14326;50.794;6.060;2023-05-03T00:37:18;100768.94;;;5.36;98.39
26719;BME280;14326;50.794;6.060;2023-05-03T00:39:45;100769.72;;;5.34;98.26
26719;BME280;14326;50.794;6.060;2023-05-03T00:42:13;100767.16;;;5.35;97.75
26719;BME280;14326;50.794;6.060;2023-05-03T00:44:47;100771.56;;;5.36;97.66
26719;BME280;14326;50.794;6.060;2023-05-03T00:47:42;100777.47;;;5.31;97.44
26719;BME280;14326;50.794;6.060;2023-05-03T00:50:21;100763.53;;;5.33;97.40
26719;BME280;14326;50.794;6.060;2023-05-03T00:52:47;100762.41;;;5.28;96.74
26719;BME280;14326;50.794;6.060;2023-05-03T00:55:14;100768.59;;;5.29;96.88
26719;BME280;14326;50.794;6.060;2023-05-03T00:57:42;100766.88;;;5.29;96.84
26719;BME280;14326;50.794;6.060;2023-05-03T01:00:10;100756.22;;;5.28;96.60
26719;BME280;14326;50.794;6.060;2023-05-03T01:02:37;100754.13;;;5.21;96.37
26719;BME280;14326;50.794;6.060;2023-05-03T01:05:05;100752.38;;;5.21;95.92
26719;BME280;14326;50.794;6.060;2023-05-03T01:07:39;100756.63;;;5.18;95.88
26719;BME280;14326;50.794;6.060;2023-05-03T01:10:25;100754.50;;;5.11;97.94
26719;BME280;14326;50.794;6.060;2023-05-03T01:13:27;100751.56;;;5.05;97.08
26719;BME280;14326;50.794;6.060;2023-05-03T01:16:05;100761.22;;;5.04;97.25
26719;BME280;14326;50.794;6.060;2023-05-03T01:18:37;100757.66;;;5.04;96.63
26719;BME280;14326;50.794;6.060;2023-05-03T01:21:07;100761.91;;;5.00;96.58
26719;BME280;14326;50.794;6.060;2023-05-03T01:23:39;100761.81;;;4.99;96.04
26719;BME280;14326;50.794;6.060;2023-05-03T01:26:21;100750.34;;;4.98;96.22
26719;BME280;14326;50.794;6.060;2023-05-03T01:28:48;100758.28;;;4.98;97.25
26719;BME280;14326;50.794;6.060;2023-05-03T01:31:21;100754.19;;;4.87;97.57
26719;BME280;14326;50.794;6.060;2023-05-03T01:34:02;100758.69;;;4.89;97.32
26719;BME280;14326;50.794;6.060;2023-05-03T01:36:30;100753.59;;;4.92;96.69
26719;BME280;14326;50.794;6.060;2023-05-03T01:39:03;100752.47;;;4.87;96.15
26719;BME280;14326;50.794;6.060;2023-05-03T01:41:35;100755.75;;;4.83;96.55
26719;BME280;14326;50.794;6.060;2023-05-03T01:44:05;100754.63;;;4.78;95.81
26719;BME280;14326;50.794;6.060;2023-05-03T01:46:32;100745.44;;;4.70;96.43
26719;BME280;14326;50.794;6.060;2023-05-03T01:48:59;100752.44;;;4.70;97.11
26719;BME280;14326;50.794;6.060;2023-05-03T01:51:25;100743.63;;;4.69;96.96
26719;BME280;14326;50.794;6.060;2023-05-03T01:53:55;100758.69;;;4.72;97.40
26719;BME280;14326;50.794;6.060;2023-05-03T01:56:22;100756.97;;;4.72;97.63
26719;BME280;14326;50.794;6.060;2023-05-03T01:58:50;100755.13;;;4.71;97.53
26719;BME280;14326;50.794;6.060;2023-05-03T02:01:16;100766.44;;;4.69;97.57
26719;BME280;14326;50.794;6.060;2023-05-03T02:03:43;100764.72;;;4.69;98.01
26719;BME280;14326;50.794;6.060;2023-05-03T02:06:10;100779.53;;;4.67;98.34
26719;BME280;14326;50.794;6.060;2023-05-03T02:08:36;100775.84;;;4.64;98.59
26719;BME280;14326;50.794;6.060;2023-05-03T02:11:08;100780.22;;;4.63;98.94
26719;BME280;14326;50.794;6.060;2023-05-03T02:13:36;100773.41;;;4.50;98.07
26719;BME280;14326;50.794;6.060;2023-05-03T02:16:07;100778.38;;;4.44;98.92
26719;BME280;14326;50.794;6.060;2023-05-03T02:18:34;100786.19;;;4.43;99.31
26719;BME280;14326;50.794;6.060;2023-05-03T02:21:07;100779.03;;;4.40;98.91
26719;BME280;14326;50.794;6.060;2023-05-03T02:23:46;100787.66;;;4.38;99.04
26719;BME280;14326;50.794;6.060;2023-05-03T02:26:14;100782.41;;;4.38;99.02
26719;BME280;14326;50.794;6.060;2023-05-03T02:28:40;100786.53;;;4.33;99.20
26719;BME280;14326;50.794;6.060;2023-05-03T02:31:10;100783.75;;;4.30;98.85
26719;BME280;14326;50.794;6.060;2023-05-03T02:33:42;100792.47;;;4.29;98.34
26719;BME280;14326;50.794;6.060;2023-05-03T02:36:32;100785.38;;;4.28;98.44
26719;BME280;14326;50.794;6.060;2023-05-03T02:39:17;100788.50;;;4.21;98.77
26719;BME280;14326;50.794;6.060;2023-05-03T02:42:04;100787.47;;;4.17;98.93
26719;BME280;14326;50.794;6.060;2023-05-03T02:44:46;100787.38;;;4.16;99.33
26719;BME280;14326;50.794;6.060;2023-05-03T02:47:14;100791.81;;;4.17;99.09
26719;BME280;14326;50.794;6.060;2023-05-03T02:49:41;100787.47;;;4.17;98.64
26719;BME280;14326;50.794;6.060;2023-05-03T02:52:25;100789.91;;;4.14;98.61
26719;BME280;14326;50.794;6.060;2023-05-03T02:57:41;100778.00;;;4.04;98.34
26719;BME280;14326;50.794;6.060;2023-05-03T03:00:09;100774.13;;;3.98;99.16
26719;BME280;14326;50.794;6.060;2023-05-03T03:02:40;100775.03;;;3.98;98.88
26719;BME280;14326;50.794;6.060;2023-05-03T03:05:08;100773.91;;;3.93;99.12
26719;BME280;14326;50.794;6.060;2023-05-03T03:07:36;100760.78;;;3.95;98.55
26719;BME280;14326;50.794;6.060;2023-05-03T03:10:07;100768.38;;;3.89;99.08
26719;BME280;14326;50.794;6.060;2023-05-03T03:12:35;100761.94;;;3.84;99.54
26719;BME280;14326;50.794;6.060;2023-05-03T03:15:02;100759.25;;;3.82;99.69
26719;BME280;14326;50.794;6.060;2023-05-03T03:17:29;100753.00;;;3.80;99.48
26719;BME280;14326;50.794;6.060;2023-05-03T03:20:10;100747.72;;;3.80;98.95
26719;BME280;14326;50.794;6.060;2023-05-03T03:22:51;100749.22;;;3.75;99.72
26719;BME280;14326;50.794;6.060;2023-05-03T03:25:23;100739.59;;;3.76;99.65
26719;BME280;14326;50.794;6.060;2023-05-03T03:27:50;100733.56;;;3.78;98.87
26719;BME280;14326;50.794;6.060;2023-05-03T03:30:17;100722.91;;;3.75;98.63
26719;BME280;14326;50.794;6.060;2023-05-03T03:32:44;100724.28;;;3.68;98.62
26719;BME280;14326;50.794;6.060;2023-05-03T03:35:13;100717.13;;;3.66;98.92
26719;BME280;14326;50.794;6.060;2023-05-03T03:37:40;100716.97;;;3.63;98.76
26719;BME280;14326;50.794;6.060;2023-05-03T03:40:08;100713.44;;;3.62;98.79
26719;BME280;14326;50.794;6.060;2023-05-03T03:42:35;100715.25;;;3.63;98.29
26719;BME280;14326;50.794;6.060;2023-05-03T03:45:03;100717.97;;;3.65;97.92
26719;BME280;14326;50.794;6.060;2023-05-03T03:47:29;100712.72;;;3.65;98.13
26719;BME280;14326;50.794;6.060;2023-05-03T03:49:57;100711.72;;;3.63;98.00
26719;BME280;14326;50.794;6.060;2023-05-03T03:52:25;100710.72;;;3.61;98.76
26719;BME280;14326;50.794;6.060;2023-05-03T03:54:52;100720.59;;;3.65;100.00
26719;BME280;14326;50.794;6.060;2023-05-03T03:57:19;100724.09;;;3.65;100.00
26719;BME280;14326;50.794;6.060;2023-05-03T03:59:45;100733.00;;;3.67;100.00
26719;BME280;14326;50.794;6.060;2023-05-03T04:02:12;100731.19;;;3.66;100.00
26719;BME280;14326;50.794;6.060;2023-05-03T04:04:38;100735.28;;;3.61;100.00
26719;BME280;14326;50.794;6.060;2023-05-03T04:07:05;100737.13;;;3.62;100.00
26719;BME280;14326;50.794;6.060;2023-05-03T04:09:51;100730.94;;;3.62;100.00
26719;BME280;14326;50.794;6.060;2023-05-03T04:12:42;100734.97;;;3.55;100.00
26719;BME280;14326;50.794;6.060;2023-05-03T04:15:24;100736.69;;;3.55;100.00
26719;BME280;14326;50.794;6.060;2023-05-03T04:17:51;100741.78;;;3.52;100.00
26719;BME280;14326;50.794;6.060;2023-05-03T04:20:18;100739.31;;;3.55;100.00
26719;BME280;14326;50.794;6.060;2023-05-03T04:22:47;100735.16;;;3.58;100.00
26719;BME280;14326;50.794;6.060;2023-05-03T04:25:19;100741.66;;;3.65;100.00
26719;BME280;14326;50.794;6.060;2023-05-03T04:27:46;100735.28;;;3.61;100.00
26719;BME280;14326;50.794;6.060;2023-05-03T04:30:20;100737.84;;;3.60;100.00
26719;BME280;14326;50.794;6.060;2023-05-03T04:33:00;100727.25;;;3.58;100.00
26719;BME280;14326;50.794;6.060;2023-05-03T04:35:28;100739.84;;;3.64;100.00
26719;BME280;14326;50.794;6.060;2023-05-03T04:37:55;100736.38;;;3.65;100.00
26719;BME280;14326;50.794;6.060;2023-05-03T04:40:23;100743.44;;;3.66;100.00
26719;BME280;14326;50.794;6.060;2023-05-03T04:42:49;100742.94;;;3.73;100.00
26719;BME280;14326;50.794;6.060;2023-05-03T04:45:16;100742.28;;;3.77;100.00
26719;BME280;14326;50.794;6.060;2023-05-03T04:47:43;100753.91;;;3.81;100.00
26719;BME280;14326;50.794;6.060;2023-05-03T04:50:10;100762.22;;;3.88;100.00
26719;BME280;14326;50.794;6.060;2023-05-03T04:52:41;100767.72;;;3.93;100.00
26719;BME280;14326;50.794;6.060;2023-05-03T04:55:23;100770.00;;;4.03;100.00
26719;BME280;14326;50.794;6.060;2023-05-03T04:57:49;100764.16;;;4.08;100.00
26719;BME280;14326;50.794;6.060;2023-05-03T05:00:16;100768.75;;;4.12;100.00
26719;BME280;14326;50.794;6.060;2023-05-03T05:02:43;100770.66;;;4.15;100.00
26719;BME280;14326;50.794;6.060;2023-05-03T05:05:10;100774.34;;;4.19;100.00
26719;BME280;14326;50.794;6.060;2023-05-03T05:07:36;100781.13;;;4.30;100.00
26719;BME280;14326;50.794;6.060;2023-05-03T05:10:07;100771.19;;;4.42;100.00
26719;BME280;14326;50.794;6.060;2023-05-03T05:12:36;100783.34;;;4.56;100.00
26719;BME280;14326;50.794;6.060;2023-05-03T05:15:03;100781.44;;;4.70;100.00
26719;BME280;14326;50.794;6.060;2023-05-03T05:17:30;100775.81;;;4.80;100.00
26719;BME280;14326;50.794;6.060;2023-05-03T05:19:57;100777.16;;;4.89;100.00
26719;BME280;14326;50.794;6.060;2023-05-03T05:22:23;100783.91;;;5.01;100.00
26719;BME280;14326;50.794;6.060;2023-05-03T05:24:50;100776.03;;;5.20;100.00
26719;BME280;14326;50.794;6.060;2023-05-03T05:27:17;100772.78;;;5.43;100.00
26719;BME280;14326;50.794;6.060;2023-05-03T05:29:45;100783.38;;;5.62;100.00
26719;BME280;14326;50.794;6.060;2023-05-03T05:32:11;100779.19;;;5.85;100.00
26719;BME280;14326;50.794;6.060;2023-05-03T05:34:38;100789.03;;;6.07;100.00
26719;BME280;14326;50.794;6.060;2023-05-03T05:37:04;100782.09;;;6.28;98.42
26719;BME280;14326;50.794;6.060;2023-05-03T05:39:31;100782.84;;;6.45;96.81
26719;BME280;14326;50.794;6.060;2023-05-03T05:41:58;100773.19;;;6.66;95.92
26719;BME280;14326;50.794;6.060;2023-05-03T05:44:25;100783.00;;;6.89;94.95
26719;BME280;14326;50.794;6.060;2023-05-03T05:46:53;100789.06;;;7.28;92.22
26719;BME280;14326;50.794;6.060;2023-05-03T05:49:20;100789.81;;;7.47;91.05
26719;BME280;14326;50.794;6.060;2023-05-03T05:51:46;100787.91;;;7.65;87.29
26719;BME280;14326;50.794;6.060;2023-05-03T05:54:18;100791.38;;;7.86;86.75
26719;BME280;14326;50.794;6.060;2023-05-03T05:56:47;100792.56;;;7.94;85.72
26719;BME280;14326;50.794;6.060;2023-05-03T05:59:14;100794.09;;;7.88;85.32
26719;BME280;14326;50.794;6.060;2023-05-03T06:01:41;100804.09;;;7.95;86.06
26719;BME280;14326;50.794;6.060;2023-05-03T06:04:12;100798.34;;;8.06;86.12
26719;BME280;14326;50.794;6.060;2023-05-03T06:06:38;100807.94;;;8.27;83.05
26719;BME280;14326;50.794;6.060;2023-05-03T06:09:05;100802.06;;;8.34;83.24
26719;BME280;14326;50.794;6.060;2023-05-03T06:11:33;100790.75;;;8.63;81.93
26719;BME280;14326;50.794;6.060;2023-05-03T06:14:00;100790.09;;;8.95;80.52
26719;BME280;14326;50.794;6.060;2023-05-03T06:16:36;100794.34;;;8.90;78.76
26719;BME280;14326;50.794;6.060;2023-05-03T06:19:03;100795.66;;;9.28;79.01
26719;BME280;14326;50.794;6.060;2023-05-03T06:21:31;100801.63;;;8.96;78.40
26719;BME280;14326;50.794;6.060;2023-05-03T06:23:58;100804.13;;;8.91;79.86
26719;BME280;14326;50.794;6.060;2023-05-03T06:26:25;100795.38;;;8.69;80.49
26719;BME280;14326;50.794;6.060;2023-05-03T06:29:15;100796.06;;;8.63;79.62
26719;BME280;14326;50.794;6.060;2023-05-03T06:31:51;100797.56;;;9.06;78.96
26719;BME280;14326;50.794;6.060;2023-05-03T06:34:18;100789.31;;;8.98;77.99
26719;BME280;14326;50.794;6.060;2023-05-03T06:36:47;100791.28;;;9.29;78.32
26719;BME280;14326;50.794;6.060;2023-05-03T06:39:15;100789.31;;;9.23;77.13
26719;BME280;14326;50.794;6.060;2023-05-03T06:41:43;100782.47;;;9.30;77.13
26719;BME280;14326;50.794;6.060;2023-05-03T06:44:10;100795.06;;;9.37;76.11
26719;BME280;14326;50.794;6.060;2023-05-03T06:46:37;100782.66;;;9.36;77.50
26719;BME280;14326;50.794;6.060;2023-05-03T06:49:04;100789.84;;;9.40;77.41
26719;BME280;14326;50.794;6.060;2023-05-03T06:51:32;100788.69;;;9.59;77.99
26719;BME280;14326;50.794;6.060;2023-05-03T06:54:01;100785.72;;;9.76;75.18
26719;BME280;14326;50.794;6.060;2023-05-03T06:56:31;100791.78;;;10.01;75.22
26719;BME280;14326;50.794;6.060;2023-05-03T06:58:59;100780.56;;;10.11;75.43
26719;BME280;14326;50.794;6.060;2023-05-03T07:01:26;100783.63;;;10.23;74.91
26719;BME280;14326;50.794;6.060;2023-05-03T07:03:53;100788.94;;;9.95;74.01
26719;BME280;14326;50.794;6.060;2023-05-03T07:06:20;100778.44;;;9.99;75.17
26719;BME280;14326;50.794;6.060;2023-05-03T07:08:49;100770.38;;;10.24;74.17
26719;BME280;14326;50.794;6.060;2023-05-03T07:11:19;100778.31;;;10.23;69.44
26719;BME280;14326;50.794;6.060;2023-05-03T07:13:51;100772.22;;;9.99;73.96
26719;BME280;14326;50.794;6.060;2023-05-03T07:16:28;100769.53;;;10.27;74.58
26719;BME280;14326;50.794;6.060;2023-05-03T07:19:00;100758.63;;;10.48;73.68
26719;BME280;14326;50.794;6.060;2023-05-03T07:21:27;100760.78;;;10.62;68.90
26719;BME280;14326;50.794;6.060;2023-05-03T07:23:55;100761.88;;;11.03;69.72
26719;BME280;14326;50.794;6.060;2023-05-03T07:26:23;100761.81;;;10.67;66.13
26719;BME280;14326;50.794;6.060;2023-05-03T07:29:06;100759.78;;;10.57;68.54
26719;BME280;14326;50.794;6.060;2023-05-03T07:32:39;100762.13;;;10.80;69.31
26719;BME280;14326;50.794;6.060;2023-05-03T07:35:14;100756.16;;;11.23;67.22
26719;BME280;14326;50.794;6.060;2023-05-03T07:37:41;100766.56;;;11.49;64.25
26719;BME280;14326;50.794;6.060;2023-05-03T07:40:08;100751.28;;;11.41;64.42
26719;BME280;14326;50.794;6.060;2023-05-03T07:42:37;100745.91;;;11.75;63.59
26719;BME280;14326;50.794;6.060;2023-05-03T07:45:15;100745.66;;;12.05;63.80
26719;BME280;14326;50.794;6.060;2023-05-03T07:48:03;100745.72;;;12.08;64.92
26719;BME280;14326;50.794;6.060;2023-05-03T07:50:30;100748.25;;;12.01;62.98
26719;BME280;14326;50.794;6.060;2023-05-03T07:52:57;100745.44;;;11.96;63.89
26719;BME280;14326;50.794;6.060;2023-05-03T07:55:24;100735.34;;;12.22;64.07
26719;BME280;14326;50.794;6.060;2023-05-03T07:57:52;100729.16;;;12.23;62.43
26719;BME280;14326;50.794;6.060;2023-05-03T08:00:23;100739.56;;;12.11;61.11
26719;BME280;14326;50.794;6.060;2023-05-03T08:03:10;100735.13;;;12.11;60.36
26719;BME280;14326;50.794;6.060;2023-05-03T08:05:40;100736.41;;;12.30;60.43
26719;BME280;14326;50.794;6.060;2023-05-03T08:08:07;100744.59;;;12.39;59.12
26719;BME280;14326;50.794;6.060;2023-05-03T08:10:38;100737.56;;;12.44;59.62
26719;BME280;14326;50.794;6.060;2023-05-03T08:13:06;100745.53;;;12.41;58.89
26719;BME280;14326;50.794;6.060;2023-05-03T08:15:33;100747.56;;;12.56;58.78
26719;BME280;14326;50.794;6.060;2023-05-03T08:17:59;100743.13;;;12.56;56.97
26719;BME280;14326;50.794;6.060;2023-05-03T08:20:27;100747.44;;;12.48;56.86
26719;BME280;14326;50.794;6.060;2023-05-03T08:22:55;100749.09;;;12.00;55.44
26719;BME280;14326;50.794;6.060;2023-05-03T08:25:21;100743.56;;;11.90;54.57
26719;BME280;14326;50.794;6.060;2023-05-03T08:27:49;100758.72;;;11.93;56.69
26719;BME280;14326;50.794;6.060;2023-05-03T08:30:17;100756.13;;;11.96;54.44
26719;BME280;14326;50.794;6.060;2023-05-03T08:32:44;100746.41;;;11.98;53.66
26719;BME280;14326;50.794;6.060;2023-05-03T08:35:11;100744.81;;;12.08;54.49
26719;BME280;14326;50.794;6.060;2023-05-03T08:37:41;100735.72;;;12.40;56.04
26719;BME280;14326;50.794;6.060;2023-05-03T08:40:09;100737.66;;;12.49;55.81
26719;BME280;14326;50.794;6.060;2023-05-03T08:42:39;100741.41;;;12.58;55.10
26719;BME280;14326;50.794;6.060;2023-05-03T08:45:09;100736.44;;;12.78;56.51
26719;BME280;14326;50.794;6.060;2023-05-03T08:47:37;100736.00;;;12.54;56.03
26719;BME280;14326;50.794;6.060;2023-05-03T08:50:07;100727.75;;;12.42;54.70
26719;BME280;14326;50.794;6.060;2023-05-03T08:52:38;100726.53;;;12.71;56.39
26719;BME280;14326;50.794;6.060;2023-05-03T08:55:05;100721.72;;;12.52;52.60
26719;BME280;14326;50.794;6.060;2023-05-03T08:57:33;100724.63;;;12.20;53.85
26719;BME280;14326;50.794;6.060;2023-05-03T09:00:01;100726.03;;;12.45;53.75
26719;BME280;14326;50.794;6.060;2023-05-03T09:02:30;100715.72;;;12.65;53.47
26719;BME280;14326;50.794;6.060;2023-05-03T09:05:00;100723.56;;;12.54;52.96
26719;BME280;14326;50.794;6.060;2023-05-03T09:07:27;100714.72;;;12.58;53.89
26719;BME280;14326;50.794;6.060;2023-05-03T09:09:54;100706.94;;;12.70;54.96
26719;BME280;14326;50.794;6.060;2023-05-03T09:12:37;100708.19;;;12.92;52.22
26719;BME280;14326;50.794;6.060;2023-05-03T09:15:06;100710.91;;;12.94;52.39
26719;BME280;14326;50.794;6.060;2023-05-03T09:17:33;100716.50;;;13.07;52.55
26719;BME280;14326;50.794;6.060;2023-05-03T09:20:01;100723.91;;;13.24;50.18
26719;BME280;14326;50.794;6.060;2023-05-03T09:22:31;100723.94;;;13.27;50.27
26719;BME280;14326;50.794;6.060;2023-05-03T09:24:59;100719.09;;;13.59;49.94
26719;BME280;14326;50.794;6.060;2023-05-03T09:27:26;100726.72;;;13.33;50.10
26719;BME280;14326;50.794;6.060;2023-05-03T09:29:53;100704.31;;;13.23;50.36
26719;BME280;14326;50.794;6.060;2023-05-03T09:32:20;100710.44;;;13.18;50.75
26719;BME280;14326;50.794;6.060;2023-05-03T09:34:48;100706.41;;;12.90;52.26
26719;BME280;14326;50.794;6.060;2023-05-03T09:37:16;100705.25;;;13.27;51.28
26719;BME280;14326;50.794;6.060;2023-05-03T09:39:46;100702.38;;;13.15;50.95
26719;BME280;14326;50.794;6.060;2023-05-03T09:42:16;100707.66;;;13.11;51.21
26719;BME280;14326;50.794;6.060;2023-05-03T09:44:44;100689.00;;;13.15;50.23
26719;BME280;14326;50.794;6.060;2023-05-03T09:47:13;100695.41;;;13.24;51.58
26719;BME280;14326;50.794;6.060;2023-05-03T09:49:40;100682.31;;;13.41;50.45
26719;BME280;14326;50.794;6.060;2023-05-03T09:52:08;100682.88;;;13.19;51.54
26719;BME280;14326;50.794;6.060;2023-05-03T09:54:37;100679.09;;;13.07;51.90
26719;BME280;14326;50.794;6.060;2023-05-03T09:57:05;100681.44;;;13.42;51.15
26719;BME280;14326;50.794;6.060;2023-05-03T09:59:33;100690.78;;;13.71;52.00
26719;BME280;14326;50.794;6.060;2023-05-03T10:02:02;100683.47;;;13.61;50.62
26719;BME280;14326;50.794;6.060;2023-05-03T10:04:37;100686.47;;;13.84;50.94
26719;BME280;14326;50.794;6.060;2023-05-03T10:07:08;100688.41;;;13.96;49.95
26719;BME280;14326;50.794;6.060;2023-05-03T10:09:41;100692.88;;;13.98;50.82
26719;BME280;14326;50.794;6.060;2023-05-03T10:12:11;100698.63;;;14.28;50.00
26719;BME280;14326;50.794;6.060;2023-05-03T10:14:42;100689.03;;;14.47;48.14
26719;BME280;14326;50.794;6.060;2023-05-03T10:17:14;100691.47;;;14.29;48.42
26719;BME280;14326;50.794;6.060;2023-05-03T10:19:46;100696.03;;;14.36;47.05
26719;BME280;14326;50.794;6.060;2023-05-03T10:22:15;100693.38;;;14.38;48.53
26719;BME280;14326;50.794;6.060;2023-05-03T10:25:09;100688.50;;;14.05;48.54
26719;BME280;14326;50.794;6.060;2023-05-03T10:27:49;100685.91;;;14.11;49.00
26719;BME280;14326;50.794;6.060;2023-05-03T10:30:27;100700.25;;;14.16;49.24
26719;BME280;14326;50.794;6.060;2023-05-03T10:32:55;100690.91;;;14.54;51.19
26719;BME280;14326;50.794;6.060;2023-05-03T10:35:28;100690.00;;;14.54;49.50
26719;BME280;14326;50.794;6.060;2023-05-03T10:37:58;100693.03;;;14.10;48.98
26719;BME280;14326;50.794;6.060;2023-05-03T10:40:40;100685.38;;;14.39;47.85
26719;BME280;14326;50.794;6.060;2023-05-03T10:43:43;100678.63;;;14.78;48.14
26719;BME280;14326;50.794;6.060;2023-05-03T10:46:32;100683.81;;;14.59;47.64
26719;BME280;14326;50.794;6.060;2023-05-03T10:49:15;100670.28;;;14.46;47.38
26719;BME280;14326;50.794;6.060;2023-05-03T10:51:43;100664.13;;;14.54;47.31
26719;BME280;14326;50.794;6.060;2023-05-03T10:54:10;100670.34;;;14.52;48.77
26719;BME280;14326;50.794;6.060;2023-05-03T10:56:48;100672.94;;;14.43;49.05
26719;BME280;14326;50.794;6.060;2023-05-03T10:59:15;100663.53;;;14.87;49.04
26719;BME280;14326;50.794;6.060;2023-05-03T11:01:43;100657.22;;;14.78;47.20
26719;BME280;14326;50.794;6.060;2023-05-03T11:04:12;100655.53;;;14.89;47.89
26719;BME280;14326;50.794;6.060;2023-05-03T11:06:42;100650.97;;;14.80;47.78
26719;BME280;14326;50.794;6.060;2023-05-03T11:09:10;100646.81;;;15.17;47.68
26719;BME280;14326;50.794;6.060;2023-05-03T11:11:39;100654.16;;;15.48;47.75
26719;BME280;14326;50.794;6.060;2023-05-03T11:14:08;100642.63;;;15.62;46.13
26719;BME280;14326;50.794;6.060;2023-05-03T11:16:36;100634.59;;;15.68;46.66
26719;BME280;14326;50.794;6.060;2023-05-03T11:19:05;100640.00;;;15.71;46.42
26719;BME280;14326;50.794;6.060;2023-05-03T11:21:31;100644.31;;;15.46;45.29
26719;BME280;14326;50.794;6.060;2023-05-03T11:24:00;100636.28;;;15.50;45.99
26719;BME280;14326;50.794;6.060;2023-05-03T11:26:27;100628.34;;;15.64;45.30
26719;BME280;14326;50.794;6.060;2023-05-03T11:28:54;100630.16;;;15.74;44.43
26719;BME280;14326;50.794;6.060;2023-05-03T11:31:22;100624.63;;;15.44;44.54
26719;BME280;14326;50.794;6.060;2023-05-03T11:33:49;100630.91;;;15.50;44.89
26719;BME280;14326;50.794;6.060;2023-05-03T11:36:15;100625.72;;;15.72;45.45
26719;BME280;14326;50.794;6.060;2023-05-03T11:38:42;100632.00;;;15.83;46.20
26719;BME280;14326;50.794;6.060;2023-05-03T11:41:11;100632.97;;;15.98;47.37
26719;BME280;14326;50.794;6.060;2023-05-03T11:43:39;100625.84;;;16.02;44.52
26719;BME280;14326;50.794;6.060;2023-05-03T11:46:06;100629.34;;;15.90;45.76
26719;BME280;14326;50.794;6.060;2023-05-03T11:48:35;100624.94;;;16.02;44.39
26719;BME280;14326;50.794;6.060;2023-05-03T11:51:07;100619.59;;;16.23;44.77
26719;BME280;14326;50.794;6.060;2023-05-03T11:53:36;100624.94;;;16.05;46.42
26719;BME280;14326;50.794;6.060;2023-05-03T11:56:06;100616.88;;;16.06;44.37
26719;BME280;14326;50.794;6.060;2023-05-03T11:58:34;100617.78;;;16.14;45.34
26719;BME280;14326;50.794;6.060;2023-05-03T12:01:00;100603.47;;;16.06;44.64
26719;BME280;14326;50.794;6.060;2023-05-03T12:03:28;100602.56;;;16.01;45.04
26719;BME280;14326;50.794;6.060;2023-05-03T12:05:59;100599.91;;;16.07;44.58
26719;BME280;14326;50.794;6.060;2023-05-03T12:08:29;100596.34;;;16.38;43.61
26719;BME280;14326;50.794;6.060;2023-05-03T12:10:56;100591.84;;;16.16;44.54
26719;BME280;14326;50.794;6.060;2023-05-03T12:13:27;100601.72;;;16.23;44.36
26719;BME280;14326;50.794;6.060;2023-05-03T12:15:56;100596.28;;;15.90;44.40
26719;BME280;14326;50.794;6.060;2023-05-03T12:18:25;100590.88;;;15.84;44.43
26719;BME280;14326;50.794;6.060;2023-05-03T12:21:02;100594.53;;;16.13;45.06
26719;BME280;14326;50.794;6.060;2023-05-03T12:23:34;100590.03;;;16.00;44.96
26719;BME280;14326;50.794;6.060;2023-05-03T12:26:03;100590.94;;;16.10;44.02
26719;BME280;14326;50.794;6.060;2023-05-03T12:28:51;100586.47;;;16.07;42.86
26719;BME280;14326;50.794;6.060;2023-05-03T12:31:31;100573.97;;;16.26;46.74
26719;BME280;14326;50.794;6.060;2023-05-03T12:34:03;100579.38;;;16.52;44.48
26719;BME280;14326;50.794;6.060;2023-05-03T12:36:36;100571.31;;;16.85;43.22
26719;BME280;14326;50.794;6.060;2023-05-03T12:39:09;100560.56;;;16.93;43.68
26719;BME280;14326;50.794;6.060;2023-05-03T12:41:59;100580.25;;;16.37;43.05
26719;BME280;14326;50.794;6.060;2023-05-03T12:44:29;100574.00;;;16.36;43.92
26719;BME280;14326;50.794;6.060;2023-05-03T12:47:03;100562.34;;;16.59;43.21
26719;BME280;14326;50.794;6.060;2023-05-03T12:49:49;100558.78;;;16.29;42.87
26719;BME280;14326;50.794;6.060;2023-05-03T12:52:23;100564.13;;;16.34;42.95
26719;BME280;14326;50.794;6.060;2023-05-03T12:54:56;100556.97;;;16.33;42.11
26719;BME280;14326;50.794;6.060;2023-05-03T12:57:31;100549.81;;;16.56;42.92
26719;BME280;14326;50.794;6.060;2023-05-03T13:00:19;100553.41;;;16.40;42.25
26719;BME280;14326;50.794;6.060;2023-05-03T13:03:00;100545.34;;;16.45;42.74
26719;BME280;14326;50.794;6.060;2023-05-03T13:05:45;100544.47;;;16.71;44.19
26719;BME280;14326;50.794;6.060;2023-05-03T13:11:31;100543.59;;;16.72;42.54
26719;BME280;14326;50.794;6.060;2023-05-03T13:14:04;100531.94;;;16.64;41.43
26719;BME280;14326;50.794;6.060;2023-05-03T13:16:31;100527.47;;;16.71;42.52
26719;BME280;14326;50.794;6.060;2023-05-03T13:18:59;100533.69;;;16.58;41.12
26719;BME280;14326;50.794;6.060;2023-05-03T13:21:28;100530.13;;;16.53;41.00